Time;durP1;ratioP1;P1;durP2;ratioP2;P2;SDS_P1;SDS_P2;PMS_P1;PMS_P2;Temp;Humidity;BMP_temperature;BMP_pressure;BME280_temperature;BME280_humidity;BME280_pressure;Samples;Min_cycle;Max_cycle;Signal;HPM_P1;HPM_P2
2023/07/04 00:00:59;;;;;;;;;;;;;;;16.99;56.99;100566.13;5079795;28;1244;-51
2023/07/04 00:03:25;;;;;;;;;;;;;;;16.40;57.54;100571.22;5079098;28;1062;-52
2023/07/04 00:05:53;;;;;;;;;;;;;;;16.17;57.41;100557.00;5079538;28;891;-52
2023/07/04 00:08:21;;;;;;;;;;;;;;;16.16;57.16;100562.75;5079206;28;1186;-54
2023/07/04 00:10:46;;;;;;;;;;;;;;;16.10;56.56;100561.09;5079468;28;1902;-50
2023/07/04 00:13:12;;;;;;;;;;;;;;;16.05;56.40;100556.47;5079086;28;1142;-53
2023/07/04 00:15:43;;;;;;;;;;;;;;;15.95;56.43;100557.28;5079415;28;1047;-52
2023/07/04 00:18:09;;;;;;;;;;;;;;;15.91;56.39;100553.44;5078994;28;1134;-54
2023/07/04 00:20:36;;;;;;;;;;;;;;;15.88;56.22;100552.06;5079454;28;1234;-49
2023/07/04 00:23:02;;;;;;;;;;;;;;;15.87;56.18;100560.56;5078930;28;1054;-55
2023/07/04 00:25:27;;;;;;;;;;;;;;;15.85;56.01;100562.75;5079316;28;1107;-53
2023/07/04 00:27:53;;;;;;;;;;;;;;;15.80;55.80;100554.53;5078819;28;1105;-52
2023/07/04 00:30:20;;;;;;;;;;;;;;;15.79;55.72;100555.59;5078814;28;904;-54
2023/07/04 00:32:45;;;;;;;;;;;;;;;15.71;55.84;100554.22;5078711;28;1910;-50
2023/07/04 00:35:11;;;;;;;;;;;;;;;15.69;55.72;100554.50;5079033;28;1074;-50
2023/07/04 00:37:36;;;;;;;;;;;;;;;15.77;55.39;100566.00;5078767;28;1190;-52
2023/07/04 00:40:05;;;;;;;;;;;;;;;15.67;55.54;100564.91;5079065;28;1130;-53
2023/07/04 00:42:34;;;;;;;;;;;;;;;16.86;56.86;100564.78;5078171;28;1131;-55
2023/07/04 00:44:59;;;;;;;;;;;;;;;16.67;57.41;100557.16;5060338;28;1083;-55
2023/07/04 00:47:42;;;;;;;;;;;;;;;16.30;57.35;100561.09;5078819;28;1170;-52
2023/07/04 00:50:09;;;;;;;;;;;;;;;16.15;56.92;100561.13;5078509;28;1086;-54
2023/07/04 00:52:35;;;;;;;;;;;;;;;16.03;56.73;100559.47;5060759;28;1905;-55
2023/07/04 00:55:01;;;;;;;;;;;;;;;16.06;56.36;100563.56;5078299;28;899;-56
2023/07/04 00:57:31;;;;;;;;;;;;;;;15.94;56.38;100561.13;5060745;28;1218;-55
2023/07/04 00:59:58;;;;;;;;;;;;;;;15.86;56.24;100564.41;5078091;28;1086;-54
2023/07/04 01:02:27;;;;;;;;;;;;;;;15.85;56.09;100560.00;5078831;28;1138;-53
2023/07/04 01:04:53;;;;;;;;;;;;;;;15.85;56.10;100562.75;5078238;28;1178;-53
2023/07/04 01:07:25;;;;;;;;;;;;;;;15.81;56.03;100565.22;5059546;28;1150;-52
2023/07/04 01:09:52;;;;;;;;;;;;;;;15.73;55.99;100569.28;5060106;28;1115;-55
2023/07/04 01:12:18;;;;;;;;;;;;;;;15.79;55.56;100563.81;5060225;28;1909;-57
2023/07/04 01:14:44;;;;;;;;;;;;;;;15.71;55.90;100568.75;5077762;28;1109;-55
2023/07/04 01:17:09;;;;;;;;;;;;;;;15.72;55.61;100570.41;5060103;28;1607;-56
2023/07/04 01:19:35;;;;;;;;;;;;;;;15.69;55.49;100581.91;5059409;28;1114;-57
2023/07/04 01:22:04;;;;;;;;;;;;;;;15.63;55.89;100572.03;5078199;28;1055;-56
2023/07/04 01:24:36;;;;;;;;;;;;;;;15.61;55.58;100574.22;5078044;28;1063;-55
2023/07/04 01:27:01;;;;;;;;;;;;;;;15.87;56.38;100574.28;5078130;28;1134;-54
2023/07/04 01:29:27;;;;;;;;;;;;;;;17.19;56.57;100581.69;5077612;28;1174;-55
2023/07/04 01:31:52;;;;;;;;;;;;;;;16.50;57.58;100579.44;5060168;28;1926;-54
2023/07/04 01:34:20;;;;;;;;;;;;;;;16.25;57.45;100577.56;5077813;28;1020;-52
2023/07/04 01:36:45;;;;;;;;;;;;;;;16.13;57.20;100585.25;5060083;28;1079;-56
2023/07/04 01:39:14;;;;;;;;;;;;;;;16.03;56.76;100589.66;5077370;28;1077;-53
2023/07/04 01:41:47;;;;;;;;;;;;;;;16.00;56.61;100581.13;5059471;28;1618;-54
2023/07/04 01:44:14;;;;;;;;;;;;;;;15.92;56.27;100579.75;5059892;28;1075;-50
2023/07/04 01:46:39;;;;;;;;;;;;;;;15.86;56.25;100580.84;5077692;28;1006;-53
2023/07/04 01:49:05;;;;;;;;;;;;;;;15.83;56.03;100584.16;5059389;28;1297;-51
2023/07/04 01:51:34;;;;;;;;;;;;;;;15.75;56.18;100588.22;5059187;28;1910;-54
2023/07/04 01:53:59;;;;;;;;;;;;;;;15.77;55.75;100598.91;5077237;28;1060;-55
2023/07/04 01:56:26;;;;;;;;;;;;;;;15.70;55.98;100600.00;5077619;28;1155;-56
2023/07/04 01:58:51;;;;;;;;;;;;;;;15.67;56.01;100603.28;5059523;28;1217;-54
2023/07/04 02:01:17;;;;;;;;;;;;;;;15.69;55.53;100600.28;5059346;28;1194;-52
2023/07/04 02:03:42;;;;;;;;;;;;;;;15.63;55.63;100593.97;5077289;28;1202;-51
2023/07/04 02:06:08;;;;;;;;;;;;;;;15.61;55.47;100601.63;5058914;28;1143;-48
2023/07/04 02:08:36;;;;;;;;;;;;;;;15.60;55.74;100594.50;5077095;28;1067;-53
2023/07/04 02:11:02;;;;;;;;;;;;;;;15.57;55.79;100603.25;5077099;28;1918;-56
2023/07/04 02:13:28;;;;;;;;;;;;;;;16.91;56.69;100605.97;5059113;28;1631;-54
2023/07/04 02:15:53;;;;;;;;;;;;;;;16.90;57.32;100596.94;5076815;28;1066;-53
2023/07/04 02:18:19;;;;;;;;;;;;;;;16.38;57.82;100598.94;5076603;28;1094;-55
2023/07/04 02:20:44;;;;;;;;;;;;;;;16.25;57.48;100602.25;5076640;28;1141;-56
2023/07/04 02:23:10;;;;;;;;;;;;;;;16.13;56.98;100597.06;5076574;28;1137;-55
2023/07/04 02:25:41;;;;;;;;;;;;;;;16.10;56.85;100603.06;5076870;28;1058;-55
2023/07/04 02:28:07;;;;;;;;;;;;;;;16.01;56.34;100604.72;5076901;28;1101;-51
2023/07/04 02:30:32;;;;;;;;;;;;;;;15.92;56.40;100596.19;5076885;28;1982;-54
2023/07/04 02:32:58;;;;;;;;;;;;;;;15.91;56.03;100594.56;5058239;28;1145;-55
2023/07/04 02:35:25;;;;;;;;;;;;;;;15.82;56.01;100596.22;5058986;28;1175;-52
2023/07/04 02:37:51;;;;;;;;;;;;;;;15.73;56.14;100590.41;5076562;28;1193;-54
2023/07/04 02:40:17;;;;;;;;;;;;;;;15.79;56.01;100588.50;5058817;28;1174;-54
2023/07/04 02:42:42;;;;;;;;;;;;;;;15.71;55.91;100587.94;5058143;28;1418;-54
2023/07/04 02:45:08;;;;;;;;;;;;;;;15.74;55.80;100590.13;5058493;28;1335;-53
2023/07/04 02:47:34;;;;;;;;;;;;;;;15.73;55.90;100583.00;5076152;28;1111;-52
2023/07/04 02:50:02;;;;;;;;;;;;;;;15.67;55.44;100588.75;5058472;28;1346;-54
2023/07/04 02:52:30;;;;;;;;;;;;;;;15.66;55.73;100590.66;5076180;28;1917;-56
2023/07/04 02:54:55;;;;;;;;;;;;;;;15.59;55.74;100587.38;5057967;28;1254;-55
2023/07/04 02:57:22;;;;;;;;;;;;;;;15.63;55.81;100599.44;5058498;28;1281;-53
2023/07/04 02:59:47;;;;;;;;;;;;;;;16.38;56.70;100593.47;5076369;28;1011;-52
2023/07/04 03:02:14;;;;;;;;;;;;;;;17.26;56.79;100602.28;5076015;28;1297;-51
2023/07/04 03:04:40;;;;;;;;;;;;;;;16.54;57.61;100601.69;5057786;28;1158;-54
2023/07/04 03:07:06;;;;;;;;;;;;;;;16.29;57.32;100605.28;5058167;28;1107;-53
2023/07/04 03:09:32;;;;;;;;;;;;;;;16.13;57.09;100598.97;5058564;28;1556;-53
2023/07/04 03:11:58;;;;;;;;;;;;;;;16.05;57.01;100601.16;5058268;28;1992;-53
2023/07/04 03:14:24;;;;;;;;;;;;;;;15.97;56.82;100598.97;5058063;28;1126;-48
2023/07/04 03:16:50;;;;;;;;;;;;;;;15.94;56.40;100598.69;5044274;28;1099;-51
2023/07/04 03:19:16;;;;;;;;;;;;;;;15.91;56.21;100600.06;5075697;28;864;-55
2023/07/04 03:21:41;;;;;;;;;;;;;;;15.86;56.00;100609.09;5058213;28;1311;-54
2023/07/04 03:24:07;;;;;;;;;;;;;;;15.83;56.07;100600.59;5071518;28;1054;-53
2023/07/04 03:26:34;;;;;;;;;;;;;;;15.79;55.81;100596.72;5041059;28;1399;-53
2023/07/04 03:29:01;;;;;;;;;;;;;;;15.80;56.00;100603.91;5058203;28;1142;-53
2023/07/04 03:31:27;;;;;;;;;;;;;;;15.70;55.90;100616.44;5067354;28;1981;-52
2023/07/04 03:33:53;;;;;;;;;;;;;;;15.70;55.84;100616.44;5059439;28;1290;-53
2023/07/04 03:36:19;;;;;;;;;;;;;;;15.67;55.94;100617.00;5060254;28;1209;-51
2023/07/04 03:38:44;;;;;;;;;;;;;;;15.68;55.64;100613.16;5042247;28;1207;-48
2023/07/04 03:41:10;;;;;;;;;;;;;;;16.80;56.86;100610.66;5071010;28;1055;-52
2023/07/04 03:43:35;;;;;;;;;;;;;;;16.89;57.16;100616.44;5079593;28;1102;-52
2023/07/04 03:46:02;;;;;;;;;;;;;;;16.36;57.78;100616.78;5079879;28;1149;-51
2023/07/04 03:48:27;;;;;;;;;;;;;;;16.20;57.47;100619.53;5079730;28;1092;-52
2023/07/04 03:50:53;;;;;;;;;;;;;;;16.16;56.86;100612.13;5079871;28;1906;-47
2023/07/04 03:53:18;;;;;;;;;;;;;;;16.12;57.50;100611.03;5061898;28;1190;-49
2023/07/04 03:55:44;;;;;;;;;;;;;;;16.06;57.36;100613.78;5061079;28;895;-52
2023/07/04 03:58:09;;;;;;;;;;;;;;;16.03;56.90;100617.06;5079738;28;1115;-50
2023/07/04 04:00:35;;;;;;;;;;;;;;;15.97;56.93;100615.41;5079796;28;1074;-49
2023/07/04 04:03:00;;;;;;;;;;;;;;;15.89;56.46;100613.22;5075377;28;1229;-50
2023/07/04 04:05:27;;;;;;;;;;;;;;;15.84;56.63;100613.22;5079442;28;1048;-51
2023/07/04 04:07:52;;;;;;;;;;;;;;;15.88;56.53;100617.06;5079046;28;1028;-47
2023/07/04 04:10:18;;;;;;;;;;;;;;;15.82;56.41;100612.66;5079156;28;1143;-48
2023/07/04 04:12:43;;;;;;;;;;;;;;;15.78;56.51;100617.00;5079386;28;1909;-48
2023/07/04 04:15:09;;;;;;;;;;;;;;;15.79;56.04;100618.66;5078817;28;932;-47
2023/07/04 04:17:35;;;;;;;;;;;;;;;15.76;56.22;100624.69;5079240;28;1505;-46
2023/07/04 04:20:04;;;;;;;;;;;;;;;15.71;56.20;100618.09;5078657;28;1118;-47
2023/07/04 04:22:30;;;;;;;;;;;;;;;15.69;56.03;100628.50;5076713;28;1324;-49
2023/07/04 04:24:56;;;;;;;;;;;;;;;15.67;56.01;100633.44;5079095;28;1067;-50
2023/07/04 04:27:22;;;;;;;;;;;;;;;15.71;56.07;100633.72;5079171;28;1190;-45
2023/07/04 04:29:48;;;;;;;;;;;;;;;15.63;56.26;100632.34;5078924;28;1158;-51
2023/07/04 04:32:13;;;;;;;;;;;;;;;15.64;56.17;100641.38;5078487;28;1941;-53
2023/07/04 04:34:39;;;;;;;;;;;;;;;15.62;56.02;100641.66;5079138;28;1284;-47
2023/07/04 04:37:04;;;;;;;;;;;;;;;15.62;55.87;100646.31;5078321;28;1098;-48
2023/07/04 04:39:31;;;;;;;;;;;;;;;15.86;56.89;100643.91;5078953;28;1079;-50
2023/07/04 04:41:56;;;;;;;;;;;;;;;17.06;57.01;100649.06;5078539;28;1082;-52
2023/07/04 04:44:22;;;;;;;;;;;;;;;16.43;58.23;100651.06;5061013;28;908;-47
2023/07/04 04:46:48;;;;;;;;;;;;;;;16.21;57.94;100648.59;5078784;28;1170;-51
2023/07/04 04:49:17;;;;;;;;;;;;;;;16.11;57.53;100656.03;5078724;28;1067;-47
2023/07/04 04:51:44;;;;;;;;;;;;;;;15.96;57.38;100654.91;5078296;28;1906;-48
2023/07/04 04:54:12;;;;;;;;;;;;;;;16.97;57.74;100656.22;5078663;28;1042;-49
2023/07/04 04:56:40;;;;;;;;;;;;;;;16.33;56.15;100651.09;5071563;28;1340;-46
2023/07/04 04:59:06;;;;;;;;;;;;;;;16.20;53.88;100654.38;5078346;28;1138;-48
2023/07/04 05:01:31;;;;;;;;;;;;;;;17.19;56.26;100653.13;5073555;28;1491;-49
2023/07/04 05:03:57;;;;;;;;;;;;;;;16.54;55.20;100662.06;5067131;28;929;-49
2023/07/04 05:06:23;;;;;;;;;;;;;;;16.55;52.99;100671.91;5070651;28;1135;-52
2023/07/04 05:08:49;;;;;;;;;;;;;;;16.33;51.95;100661.25;5077747;28;889;-48
2023/07/04 05:11:15;;;;;;;;;;;;;;;16.40;51.09;100664.53;5078310;28;1905;-49
2023/07/04 05:13:41;;;;;;;;;;;;;;;16.98;52.87;100660.63;5069851;28;1622;-51
2023/07/04 05:16:11;;;;;;;;;;;;;;;16.52;52.74;100664.25;5064501;28;1511;-51
2023/07/04 05:18:37;;;;;;;;;;;;;;;16.40;52.32;100672.78;5078349;28;1209;-52
2023/07/04 05:21:03;;;;;;;;;;;;;;;16.41;51.11;100675.25;5077564;28;884;-52
2023/07/04 05:23:29;;;;;;;;;;;;;;;16.49;50.14;100673.03;5078245;28;1159;-52
2023/07/04 05:26:07;;;;;;;;;;;;;;;16.45;49.63;100671.94;5074403;28;1141;-49
2023/07/04 05:28:33;;;;;;;;;;;;;;;16.33;49.35;100664.00;5066392;28;1442;-49
2023/07/04 05:30:59;;;;;;;;;;;;;;;17.21;51.67;100673.75;5058317;28;1906;-52
2023/07/04 05:33:24;;;;;;;;;;;;;;;16.87;51.98;100671.63;5063990;28;1555;-53
2023/07/04 05:35:50;;;;;;;;;;;;;;;16.67;50.86;100675.22;5074950;28;1495;-48
2023/07/04 05:38:15;;;;;;;;;;;;;;;16.59;50.11;100675.75;5060214;28;1154;-51
2023/07/04 05:40:41;;;;;;;;;;;;;;;16.51;49.55;100671.66;5077584;28;1047;-53
2023/07/04 05:43:06;;;;;;;;;;;;;;;16.50;49.00;100677.44;5077160;28;1147;-51
2023/07/04 05:45:32;;;;;;;;;;;;;;;16.59;49.33;100676.59;5076652;28;1328;-47
2023/07/04 05:47:57;;;;;;;;;;;;;;;16.51;48.78;100677.16;5076987;28;1154;-50
2023/07/04 05:50:23;;;;;;;;;;;;;;;16.43;48.81;100669.47;5076794;28;1174;-50
2023/07/04 05:52:48;;;;;;;;;;;;;;;16.42;48.25;100674.16;5076605;28;1982;-45
2023/07/04 05:55:14;;;;;;;;;;;;;;;16.45;47.93;100677.44;5076322;28;1264;-48
2023/07/04 05:57:39;;;;;;;;;;;;;;;16.36;48.02;100683.47;5077444;28;1034;-47
2023/07/04 06:00:05;;;;;;;;;;;;;;;16.43;47.82;100684.00;5076883;28;1185;-47
2023/07/04 06:02:39;;;;;;;;;;;;;;;17.09;50.07;100682.28;5073884;28;1127;-48
2023/07/04 06:05:05;;;;;;;;;;;;;;;16.83;50.45;100691.66;5072446;28;1237;-51
2023/07/04 06:07:31;;;;;;;;;;;;;;;16.72;49.58;100686.19;5076500;28;1130;-50
2023/07/04 06:09:56;;;;;;;;;;;;;;;16.69;48.75;100683.16;5074790;28;1099;-53
2023/07/04 06:12:22;;;;;;;;;;;;;;;16.63;48.65;100685.09;5077394;28;1977;-48
2023/07/04 06:14:47;;;;;;;;;;;;;;;16.59;47.97;100687.59;5077334;28;1125;-49
2023/07/04 06:17:13;;;;;;;;;;;;;;;16.67;47.93;100691.69;5077164;28;1070;-46
2023/07/04 06:19:38;;;;;;;;;;;;;;;16.43;48.14;100692.25;5076088;28;1015;-46
2023/07/04 06:22:06;;;;;;;;;;;;;;;17.00;48.79;100692.22;5076743;28;1062;-46
2023/07/04 06:24:31;;;;;;;;;;;;;;;17.03;50.11;100691.66;5076415;28;1019;-47
2023/07/04 06:26:57;;;;;;;;;;;;;;;16.91;49.31;100700.22;5076890;28;1221;-47
2023/07/04 06:29:22;;;;;;;;;;;;;;;16.75;48.83;100693.06;5076824;28;1142;-49
2023/07/04 06:31:48;;;;;;;;;;;;;;;16.68;48.64;100704.31;5072962;28;1906;-50
2023/07/04 06:34:14;;;;;;;;;;;;;;;16.76;48.04;100702.94;5074078;28;1075;-48
2023/07/04 06:36:40;;;;;;;;;;;;;;;16.71;47.86;100705.69;5076660;28;1094;-49
2023/07/04 06:39:05;;;;;;;;;;;;;;;16.66;47.63;100701.03;5076697;28;1024;-46
2023/07/04 06:41:31;;;;;;;;;;;;;;;16.69;47.44;100695.00;5076764;28;1067;-48
2023/07/04 06:43:56;;;;;;;;;;;;;;;17.20;48.62;100696.81;5075938;28;1032;-47
2023/07/04 06:46:22;;;;;;;;;;;;;;;17.04;49.32;100695.22;5076477;28;1070;-49
2023/07/04 06:48:48;;;;;;;;;;;;;;;16.88;49.02;100700.75;5075961;28;1173;-51
2023/07/04 06:51:14;;;;;;;;;;;;;;;16.75;48.62;100702.09;5076187;28;1973;-51
2023/07/04 06:53:39;;;;;;;;;;;;;;;16.79;48.15;100702.38;5076490;28;1162;-50
2023/07/04 06:56:06;;;;;;;;;;;;;;;16.73;48.15;100709.81;5076031;28;1125;-47
2023/07/04 06:58:31;;;;;;;;;;;;;;;16.77;47.57;100710.91;5076012;28;1216;-51
2023/07/04 07:00:57;;;;;;;;;;;;;;;16.73;47.69;100704.31;5075777;28;1079;-47
2023/07/04 07:03:22;;;;;;;;;;;;;;;17.71;49.08;100701.28;5076346;28;1213;-46
2023/07/04 07:05:48;;;;;;;;;;;;;;;17.06;49.98;100704.81;5075360;28;1043;-49
2023/07/04 07:08:16;;;;;;;;;;;;;;;16.98;49.27;100699.09;5076177;28;1102;-51
2023/07/04 07:10:55;;;;;;;;;;;;;;;16.89;48.90;100705.13;5076120;28;1191;-49
2023/07/04 07:13:20;;;;;;;;;;;;;;;16.88;48.65;100706.22;5075791;28;1091;-44
2023/07/04 07:15:46;;;;;;;;;;;;;;;16.96;47.80;100715.84;5076433;28;1205;-49
2023/07/04 07:18:11;;;;;;;;;;;;;;;16.89;47.85;100701.59;5075817;28;1082;-49
2023/07/04 07:20:37;;;;;;;;;;;;;;;16.73;48.19;100706.22;5075954;28;1134;-47
2023/07/04 07:23:02;;;;;;;;;;;;;;;16.83;47.71;100708.13;5076075;28;1174;-49
2023/07/04 07:25:28;;;;;;;;;;;;;;;16.79;47.85;100712.53;5076083;28;1217;-48
2023/07/04 07:27:53;;;;;;;;;;;;;;;16.79;47.55;100707.03;5067839;28;1537;-48
2023/07/04 07:30:19;;;;;;;;;;;;;;;16.67;47.93;100712.84;5066977;28;1182;-50
2023/07/04 07:32:44;;;;;;;;;;;;;;;16.76;47.35;100712.00;5063122;28;1926;-53
2023/07/04 07:35:10;;;;;;;;;;;;;;;16.74;47.36;100710.63;5065195;28;1278;-54
2023/07/04 07:37:36;;;;;;;;;;;;;;;16.80;47.35;100714.19;5073719;28;1390;-48
2023/07/04 07:40:03;;;;;;;;;;;;;;;16.73;47.35;100720.78;5067152;28;1055;-54
2023/07/04 07:42:30;;;;;;;;;;;;;;;16.71;47.62;100717.47;5068283;28;1245;-48
2023/07/04 07:44:55;;;;;;;;;;;;;;;16.76;47.47;100713.94;5071795;28;1074;-50
2023/07/04 07:47:21;;;;;;;;;;;;;;;17.50;48.55;100717.06;5070511;28;1555;-47
2023/07/04 07:49:46;;;;;;;;;;;;;;;17.06;49.18;100713.06;5074677;28;972;-52
2023/07/04 07:52:12;;;;;;;;;;;;;;;16.97;48.88;100713.91;5075979;28;1913;-50
2023/07/04 07:54:38;;;;;;;;;;;;;;;16.91;48.67;100718.59;5075672;28;1150;-51
2023/07/04 07:57:03;;;;;;;;;;;;;;;16.86;48.40;100713.09;5070290;28;1563;-47
2023/07/04 07:59:29;;;;;;;;;;;;;;;16.86;47.97;100719.41;5062778;28;1143;-50
2023/07/04 08:01:55;;;;;;;;;;;;;;;16.85;47.99;100719.69;5075798;28;1038;-50
2023/07/04 08:04:21;;;;;;;;;;;;;;;16.88;47.58;100727.34;5075195;28;1113;-48
2023/07/04 08:06:46;;;;;;;;;;;;;;;16.89;47.60;100723.56;5075116;28;1066;-49
2023/07/04 08:09:13;;;;;;;;;;;;;;;16.80;47.61;100725.16;5075266;28;1070;-51
2023/07/04 08:11:39;;;;;;;;;;;;;;;16.73;47.70;100719.94;5075288;28;1976;-49
2023/07/04 08:14:04;;;;;;;;;;;;;;;16.80;47.53;100725.16;5057568;28;1040;-47
2023/07/04 08:16:44;;;;;;;;;;;;;;;16.72;47.82;100730.13;5075932;28;1139;-54
2023/07/04 08:19:10;;;;;;;;;;;;;;;16.82;47.70;100723.78;5079534;28;1062;-50
2023/07/04 08:21:35;;;;;;;;;;;;;;;16.83;47.44;100730.09;5078689;28;1202;-50
2023/07/04 08:24:01;;;;;;;;;;;;;;;16.82;47.39;100729.28;5061027;28;1142;-49
2023/07/04 08:26:26;;;;;;;;;;;;;;;16.87;47.51;100728.44;5079294;28;1126;-50
2023/07/04 08:28:52;;;;;;;;;;;;;;;16.82;47.58;100728.47;5079228;28;1059;-54
2023/07/04 08:31:18;;;;;;;;;;;;;;;16.77;47.32;100734.78;5078348;28;1977;-49
2023/07/04 08:33:45;;;;;;;;;;;;;;;16.75;47.42;100737.81;5077870;28;890;-51
2023/07/04 08:36:10;;;;;;;;;;;;;;;16.74;47.28;100732.59;5078817;28;1123;-47
2023/07/04 08:38:36;;;;;;;;;;;;;;;16.74;47.39;100732.59;5078699;28;1206;-53
2023/07/04 08:41:01;;;;;;;;;;;;;;;16.72;47.54;100730.13;5076981;28;1126;-52
2023/07/04 08:43:28;;;;;;;;;;;;;;;16.68;47.75;100737.25;5064700;28;1160;-49
2023/07/04 08:45:54;;;;;;;;;;;;;;;16.75;47.49;100731.50;5049847;28;1321;-49
2023/07/04 08:48:20;;;;;;;;;;;;;;;16.83;47.40;100721.88;5069432;28;1131;-52
2023/07/04 08:50:46;;;;;;;;;;;;;;;16.82;47.40;100718.31;5069538;28;1230;-50
2023/07/04 08:53:16;;;;;;;;;;;;;;;16.79;47.73;100732.59;5049549;28;889;-50
2023/07/04 08:55:43;;;;;;;;;;;;;;;16.86;47.29;100737.81;5059396;28;1064;-53
2023/07/04 08:58:08;;;;;;;;;;;;;;;16.81;47.46;100737.81;5060618;28;869;-51
2023/07/04 09:00:35;;;;;;;;;;;;;;;16.73;47.73;100741.91;5059706;28;1410;-49
2023/07/04 09:03:16;;;;;;;;;;;;;;;16.79;47.59;100735.34;5062062;28;1040;-48
2023/07/04 09:05:56;;;;;;;;;;;;;;;16.84;47.35;100737.25;5058460;28;1257;-51
2023/07/04 09:08:31;;;;;;;;;;;;;;;16.82;47.49;100740.28;5075231;28;1135;-50
2023/07/04 09:10:59;;;;;;;;;;;;;;;16.81;47.60;100746.03;5066896;28;1914;-49
2023/07/04 09:13:37;;;;;;;;;;;;;;;16.81;47.54;100743.31;5040581;28;1254;-50
2023/07/04 09:16:07;;;;;;;;;;;;;;;16.78;47.40;100744.66;5048435;28;1106;-48
2023/07/04 09:18:41;;;;;;;;;;;;;;;16.85;47.20;100747.97;5055658;28;1019;-50
2023/07/04 09:21:16;;;;;;;;;;;;;;;17.38;49.09;100741.31;5076346;28;929;-52
2023/07/04 09:23:42;;;;;;;;;;;;;;;17.08;49.08;100751.25;5077724;28;1042;-52
2023/07/04 09:26:10;;;;;;;;;;;;;;;17.07;48.47;100744.94;5076896;28;1151;-51
2023/07/04 09:28:36;;;;;;;;;;;;;;;16.99;48.47;100752.94;5075012;28;972;-54
2023/07/04 09:31:02;;;;;;;;;;;;;;;17.11;48.93;100756.22;5059942;28;1910;-53
2023/07/04 09:33:28;;;;;;;;;;;;;;;17.17;51.40;100757.03;5077349;28;996;-48
2023/07/04 09:35:55;;;;;;;;;;;;;;;17.13;49.86;100751.25;5059968;28;1135;-52
2023/07/04 09:38:20;;;;;;;;;;;;;;;17.07;48.99;100750.44;5060064;28;1071;-50
2023/07/04 09:40:48;;;;;;;;;;;;;;;17.03;48.79;100746.59;5077712;28;1079;-47
2023/07/04 09:43:32;;;;;;;;;;;;;;;17.06;49.84;100750.72;5060235;28;1155;-47
2023/07/04 09:46:10;;;;;;;;;;;;;;;17.19;49.63;100752.06;5077091;28;1059;-48
2023/07/04 09:48:35;;;;;;;;;;;;;;;17.07;48.92;100744.94;5069948;28;1280;-48
2023/07/04 09:51:11;;;;;;;;;;;;;;;17.06;48.70;100743.28;5057086;28;1976;-47
2023/07/04 09:53:36;;;;;;;;;;;;;;;17.05;48.02;100743.56;5057344;28;1261;-52
2023/07/04 09:56:02;;;;;;;;;;;;;;;17.14;48.46;100746.56;5067033;28;1035;-50
2023/07/04 09:58:29;;;;;;;;;;;;;;;17.02;48.49;100742.19;5070977;28;1223;-49
2023/07/04 10:01:13;;;;;;;;;;;;;;;17.16;47.86;100747.94;5059310;28;1245;-51
2023/07/04 10:03:39;;;;;;;;;;;;;;;17.09;48.73;100737.22;5082620;28;1377;-45
2023/07/04 10:06:05;;;;;;;;;;;;;;;17.14;48.21;100735.56;5076812;28;1043;-50
2023/07/04 10:08:31;;;;;;;;;;;;;;;17.19;48.76;100732.81;5076756;28;1066;-50
2023/07/04 10:10:57;;;;;;;;;;;;;;;17.13;48.99;100739.44;5077183;28;1897;-48
2023/07/04 10:13:24;;;;;;;;;;;;;;;17.14;48.41;100739.16;5075830;28;1054;-51
2023/07/04 10:15:49;;;;;;;;;;;;;;;17.10;48.34;100729.81;5076614;28;1122;-51
2023/07/04 10:18:41;;;;;;;;;;;;;;;17.10;48.24;100722.41;5076844;28;1285;-48
2023/07/04 10:21:06;;;;;;;;;;;;;;;17.14;47.72;100725.44;5072778;28;1825;-51
2023/07/04 10:23:32;;;;;;;;;;;;;;;17.09;47.92;100728.19;5077126;28;1103;-51
2023/07/04 10:25:58;;;;;;;;;;;;;;;17.05;47.91;100733.38;5058830;28;1409;-48
2023/07/04 10:28:25;;;;;;;;;;;;;;;17.13;47.55;100734.75;5077003;28;1039;-53
2023/07/04 10:30:52;;;;;;;;;;;;;;;17.10;47.53;100736.13;5071427;28;1968;-44
2023/07/04 10:33:40;;;;;;;;;;;;;;;17.04;47.68;100729.03;5076926;28;1166;-50
2023/07/04 10:36:07;;;;;;;;;;;;;;;17.08;47.54;100727.38;5063044;28;1269;-47
2023/07/04 10:38:39;;;;;;;;;;;;;;;17.02;47.49;100733.13;5058763;28;1162;-49
2023/07/04 10:41:09;;;;;;;;;;;;;;;17.02;47.63;100727.66;5074360;28;1091;-51
2023/07/04 10:43:35;;;;;;;;;;;;;;;17.06;47.34;100715.81;5075766;28;1128;-51
2023/07/04 10:46:01;;;;;;;;;;;;;;;17.09;47.44;100729.00;5058491;28;1146;-51
2023/07/04 10:48:28;;;;;;;;;;;;;;;17.03;47.47;100730.13;5058423;28;1303;-51
2023/07/04 10:50:55;;;;;;;;;;;;;;;16.98;47.44;100726.56;5075746;28;1902;-49
2023/07/04 10:53:21;;;;;;;;;;;;;;;17.13;48.26;100726.53;5076361;28;1075;-52
2023/07/04 10:55:51;;;;;;;;;;;;;;;17.23;50.91;100729.22;5064773;28;1188;-51
2023/07/04 10:58:18;;;;;;;;;;;;;;;17.22;49.72;100721.28;5048674;28;1276;-53
2023/07/04 11:01:07;;;;;;;;;;;;;;;17.23;48.92;100725.66;5057442;28;1141;-54
2023/07/04 11:03:46;;;;;;;;;;;;;;;17.19;49.28;100721.84;5049919;28;1345;-51
2023/07/04 11:06:30;;;;;;;;;;;;;;;17.22;48.60;100715.78;5075469;28;993;-54
2023/07/04 11:08:56;;;;;;;;;;;;;;;17.17;48.08;100724.06;5056025;28;997;-54
2023/07/04 11:11:26;;;;;;;;;;;;;;;17.16;47.70;100722.41;5071453;28;1906;-51
2023/07/04 11:13:52;;;;;;;;;;;;;;;17.14;47.72;100727.31;5066744;28;1178;-55
2023/07/04 11:16:19;;;;;;;;;;;;;;;17.13;47.82;100720.22;5071607;28;1145;-56
2023/07/04 11:18:57;;;;;;;;;;;;;;;17.03;47.97;100719.13;5075946;28;1022;-54
2023/07/04 11:21:24;;;;;;;;;;;;;;;17.14;47.37;100706.19;5058162;28;1091;-56
2023/07/04 11:23:50;;;;;;;;;;;;;;;17.15;47.54;100707.00;5069627;28;1138;-56
2023/07/04 11:26:19;;;;;;;;;;;;;;;17.15;47.62;100704.25;5052904;28;1035;-53
2023/07/04 11:28:46;;;;;;;;;;;;;;;17.15;47.44;100715.25;5064638;28;1293;-52
2023/07/04 11:31:11;;;;;;;;;;;;;;;17.11;47.55;100709.50;5075942;28;1969;-52
2023/07/04 11:33:41;;;;;;;;;;;;;;;17.19;47.34;100717.16;5075967;28;1211;-54
2023/07/04 11:36:26;;;;;;;;;;;;;;;17.10;47.23;100705.91;5076264;28;1003;-56
2023/07/04 11:38:52;;;;;;;;;;;;;;;17.09;47.28;100708.94;5075713;28;1039;-55
2023/07/04 11:41:45;;;;;;;;;;;;;;;17.15;47.15;100709.75;5058166;28;1059;-56
2023/07/04 11:44:14;;;;;;;;;;;;;;;17.10;47.35;100707.84;5063919;28;1622;-56
2023/07/04 11:46:41;;;;;;;;;;;;;;;17.20;47.01;100701.50;5075773;28;1427;-54
2023/07/04 11:49:06;;;;;;;;;;;;;;;17.10;47.30;100705.91;5075479;28;1729;-52
2023/07/04 11:51:32;;;;;;;;;;;;;;;17.06;47.14;100702.06;5057995;28;1901;-55
2023/07/04 11:53:58;;;;;;;;;;;;;;;17.04;47.05;100690.56;5065754;28;1100;-54
2023/07/04 11:56:26;;;;;;;;;;;;;;;17.09;47.18;100690.53;5074673;28;1036;-54
2023/07/04 11:59:10;;;;;;;;;;;;;;;17.11;47.09;100693.03;5079735;28;1051;-51
2023/07/04 12:01:51;;;;;;;;;;;;;;;17.07;47.16;100690.00;5079695;28;1118;-54
2023/07/04 12:04:23;;;;;;;;;;;;;;;17.12;47.19;100680.09;5073544;28;1067;-55
2023/07/04 12:06:57;;;;;;;;;;;;;;;17.12;47.08;100683.66;5074656;28;1071;-54
2023/07/04 12:09:24;;;;;;;;;;;;;;;17.10;47.44;100692.19;5062475;28;1085;-54
2023/07/04 12:11:50;;;;;;;;;;;;;;;17.07;47.24;100689.19;5061408;28;1902;-54
2023/07/04 12:14:15;;;;;;;;;;;;;;;17.02;47.55;100684.50;5061346;28;1118;-54
2023/07/04 12:16:41;;;;;;;;;;;;;;;17.01;47.40;100688.38;5061561;28;1167;-53
2023/07/04 12:19:07;;;;;;;;;;;;;;;17.09;47.30;100685.03;5079160;28;1173;-54
2023/07/04 12:21:33;;;;;;;;;;;;;;;17.20;47.08;100685.03;5066035;28;1165;-54
2023/07/04 12:24:03;;;;;;;;;;;;;;;17.09;47.15;100673.22;5079352;28;1015;-54
2023/07/04 12:26:30;;;;;;;;;;;;;;;17.10;47.11;100672.94;5078655;28;1090;-55
2023/07/04 12:28:55;;;;;;;;;;;;;;;17.05;47.35;100683.13;5079547;28;1143;-54
2023/07/04 12:31:23;;;;;;;;;;;;;;;16.98;47.42;100680.66;5068812;28;1997;-50
2023/07/04 12:33:48;;;;;;;;;;;;;;;17.08;47.03;100685.31;5063995;28;1495;-48
2023/07/04 12:36:15;;;;;;;;;;;;;;;17.06;47.23;100687.53;5067403;28;1174;-58
2023/07/04 12:38:44;;;;;;;;;;;;;;;17.14;46.88;100689.72;5079162;28;1411;-49
2023/07/04 12:41:10;;;;;;;;;;;;;;;17.04;47.24;100703.44;5079080;28;1167;-52
2023/07/04 12:43:36;;;;;;;;;;;;;;;17.06;47.07;100702.06;5060346;28;1086;-52
2023/07/04 12:46:08;;;;;;;;;;;;;;;17.05;47.24;100683.94;5061062;28;1059;-46
2023/07/04 12:48:34;;;;;;;;;;;;;;;17.06;46.82;100688.34;5078774;28;1221;-49